目前日期文章:200903 (4)

瀏覽方式: 標題列表 簡短摘要
RJAA 230030Z 32021G34KT 9999 FEW030 14/M03 Q1004 WS R34R NOSIG RMK 1CU030 A2966

CougarHsiung 發表在 痞客邦 留言(9) 人氣()

親愛的七十期兄弟們,很高興曾與大家一起走過那段青澀的歲月,
感謝生命中曾有這麼一段可貴的時光值得大家珍惜回憶。

CougarHsiung 發表在 痞客邦 留言(0) 人氣()

CAT:晴空亂流(Clear-air turbulence)
係指飛機飛過無雲之天空時所遭遇到之亂流 (Turbulence)

CougarHsiung 發表在 痞客邦 留言(18) 人氣()



CougarHsiung 發表在 痞客邦 留言(10) 人氣()